Time;durP1;ratioP1;P1;durP2;ratioP2;P2;SDS_P1;SDS_P2;PMS_P1;PMS_P2;Temp;Humidity;BMP_temperature;BMP_pressure;BME280_temperature;BME280_humidity;BME280_pressure;Samples;Min_cycle;Max_cycle;Signal;HPM_P1;HPM_P2
2023/03/25 00:01:31;;;;;;;28.80;18.00;;;;;;;29.64;26.58;99259.58;108343;1251;75018;-67
2023/03/25 00:04:03;;;;;;;28.00;17.30;;;;;;;29.56;26.68;99256.33;108323;1251;71427;-66
2023/03/25 00:06:34;;;;;;;27.90;16.50;;;;;;;29.97;26.23;99253.05;108332;1256;72762;-66
2023/03/25 00:09:06;;;;;;;31.40;18.00;;;;;;;29.94;25.96;99247.18;108242;1251;60323;-66
2023/03/25 00:11:36;;;;;;;28.60;17.50;;;;;;;30.04;26.21;99244.34;108231;1251;61572;-67
2023/03/25 00:14:05;;;;;;;29.00;17.10;;;;;;;29.96;26.15;99247.58;108288;1251;74633;-66
2023/03/25 00:16:47;;;;;;;28.40;17.90;;;;;;;28.55;27.02;99251.36;108266;1251;71238;-67
2023/03/25 00:19:15;;;;;;;32.70;18.90;;;;;;;28.82;27.28;99245.40;108268;1251;72568;-65
2023/03/25 00:21:43;;;;;;;38.10;20.10;;;;;;;28.73;26.89;99241.31;108248;1251;60698;-66
2023/03/25 00:24:16;;;;;;;30.70;18.90;;;;;;;28.54;27.10;99240.86;108359;1251;60437;-67
2023/03/25 00:26:48;;;;;;;35.80;18.10;;;;;;;28.63;27.41;99238.20;108292;1251;74866;-66
2023/03/25 00:29:17;;;;;;;32.40;19.50;;;;;;;29.05;26.66;99236.10;108369;1251;71334;-65
2023/03/25 00:31:46;;;;;;;32.90;18.80;;;;;;;28.71;27.02;99237.03;108312;1251;72810;-66
2023/03/25 00:34:15;;;;;;;33.80;20.00;;;;;;;28.78;27.45;99234.59;108137;1251;61040;-67
2023/03/25 00:36:47;;;;;;;31.80;20.00;;;;;;;28.94;26.84;99232.90;108313;1251;61380;-66
2023/03/25 00:39:15;;;;;;;30.50;18.90;;;;;;;29.65;26.31;99229.95;108280;1256;74833;-66
2023/03/25 00:41:44;;;;;;;30.60;19.90;;;;;;;29.31;26.35;99232.65;108293;1251;71540;-67
2023/03/25 00:44:13;;;;;;;37.50;20.70;;;;;;;29.58;25.92;99230.75;108319;1253;72992;-67
2023/03/25 00:46:41;;;;;;;30.00;18.20;;;;;;;29.81;26.28;99223.77;108259;1251;61252;-67
2023/03/25 00:49:12;;;;;;;33.00;19.60;;;;;;;29.70;25.68;99217.20;108147;1251;60864;-66
2023/03/25 00:51:42;;;;;;;27.50;16.40;;;;;;;29.46;26.14;99220.55;108135;1251;76284;-67
2023/03/25 00:54:22;;;;;;;28.20;16.20;;;;;;;29.14;26.34;99223.16;108316;1253;68394;-68
2023/03/25 00:56:52;;;;;;;28.10;16.10;;;;;;;28.45;26.66;99234.23;108227;1254;72772;-64
2023/03/25 00:59:21;;;;;;;31.40;16.90;;;;;;;28.60;26.72;99237.54;108325;1253;60469;-65
2023/03/25 01:01:52;;;;;;;27.70;16.30;;;;;;;28.59;26.87;99241.21;108253;1253;60291;-66
2023/03/25 01:04:20;;;;;;;25.80;15.90;;;;;;;28.80;26.26;99239.70;108257;1251;74940;-67
2023/03/25 01:06:50;;;;;;;26.50;15.50;;;;;;;29.10;26.16;99231.85;108164;1251;71488;-68
2023/03/25 01:09:19;;;;;;;30.30;16.50;;;;;;;29.13;25.88;99233.90;108322;1251;73888;-66
2023/03/25 01:11:51;;;;;;;29.50;16.20;;;;;;;28.72;26.57;99233.84;108354;1251;60688;-66
2023/03/25 01:14:20;;;;;;;28.30;16.00;;;;;;;28.64;26.94;99233.45;108186;1251;61218;-66
2023/03/25 01:16:49;;;;;;;28.00;16.20;;;;;;;28.34;27.18;99231.15;108165;1251;74139;-66
2023/03/25 01:19:19;;;;;;;;;;;;;;;28.19;27.94;99233.83;108277;1251;71573;-66
2023/03/25 01:21:49;;;;;;;30.10;16.00;;;;;;;28.29;27.89;99234.73;108319;1251;72047;-67
2023/03/25 01:24:18;;;;;;;26.20;16.30;;;;;;;28.04;27.90;99241.06;108335;1255;60342;-68
2023/03/25 01:26:46;;;;;;;27.10;16.90;;;;;;;27.88;28.75;99241.89;108303;1251;60431;-68
2023/03/25 01:29:16;;;;;;;22.40;15.10;;;;;;;28.10;28.28;99239.70;108300;1251;73174;-67
2023/03/25 01:31:44;;;;;;;23.50;14.60;;;;;;;28.05;28.64;99242.45;108260;1251;71787;-67
2023/03/25 01:34:14;;;;;;;24.00;15.00;;;;;;;28.34;28.73;99237.70;108392;1251;73003;-66
2023/03/25 01:36:45;;;;;;;32.20;16.10;;;;;;;28.51;28.25;99235.64;108361;1251;60850;-66
2023/03/25 01:39:17;;;;;;;23.40;15.20;;;;;;;28.26;28.52;99241.11;108337;1251;61322;-67
2023/03/25 01:41:47;;;;;;;26.00;15.40;;;;;;;28.01;28.71;99239.13;108334;1251;73623;-65
2023/03/25 01:44:18;;;;;;;27.40;16.70;;;;;;;28.53;27.97;99233.92;108172;1251;71281;-65
2023/03/25 01:46:47;;;;;;;27.20;15.40;;;;;;;28.81;28.20;99234.51;108183;1251;72133;-66
2023/03/25 01:49:25;;;;;;;29.50;15.50;;;;;;;29.11;27.57;99232.14;108451;1254;62098;-65
2023/03/25 01:52:02;;;;;;;29.20;15.80;;;;;;;29.23;26.95;99234.14;108419;1251;60197;-65
2023/03/25 01:54:31;;;;;;;28.40;16.30;;;;;;;29.13;27.68;99233.08;108201;1253;71909;-66
2023/03/25 01:56:59;;;;;;;27.40;16.90;;;;;;;29.49;26.62;99232.49;108291;1253;68942;-67
2023/03/25 01:59:28;;;;;;;29.40;17.30;;;;;;;29.44;26.84;99232.52;108039;1253;72150;-64
2023/03/25 02:01:57;;;;;;;31.40;17.00;;;;;;;28.91;27.35;99232.48;108138;1251;63201;-67
2023/03/25 02:04:57;;;;;;;32.10;17.40;;;;;;;28.71;27.19;99229.63;108269;1251;61091;-68
2023/03/25 02:07:29;;;;;;;34.90;17.20;;;;;;;28.61;27.56;99226.98;108123;1251;75144;-69
2023/03/25 02:09:58;;;;;;;36.60;18.00;;;;;;;28.73;27.43;99231.21;108091;1251;71256;-67
2023/03/25 02:12:27;;;;;;;29.50;17.10;;;;;;;28.82;26.97;99227.46;108082;1251;73991;-66
2023/03/25 02:15:01;;;;;;;30.80;17.20;;;;;;;28.75;27.38;99223.81;108314;1251;63206;-67
2023/03/25 02:17:58;;;;;;;27.70;16.10;;;;;;;28.66;27.02;99222.30;108261;1251;60992;-69
2023/03/25 02:20:43;;;;;;;29.10;17.50;;;;;;;28.72;26.66;99216.25;108282;1251;74742;-66
2023/03/25 02:23:14;;;;;;;27.10;15.80;;;;;;;28.69;27.31;99213.27;108306;1251;71188;-66
2023/03/25 02:26:04;;;;;;;30.70;17.70;;;;;;;28.89;27.03;99214.38;108244;1256;72078;-67
2023/03/25 02:29:06;;;;;;;31.70;16.70;;;;;;;28.83;26.75;99209.67;108290;1251;62832;-67
2023/03/25 02:32:06;;;;;;;27.40;15.30;;;;;;;28.32;27.56;99212.31;108168;1251;61284;-66
2023/03/25 02:34:59;;;;;;;27.10;15.40;;;;;;;28.53;27.63;99207.52;108120;1251;74805;-67
2023/03/25 02:37:51;;;;;;;29.00;15.90;;;;;;;29.27;26.43;99208.19;108314;1251;71535;-67
2023/03/25 02:40:24;;;;;;;26.70;15.30;;;;;;;29.27;26.17;99214.20;108313;1251;72892;-66
2023/03/25 02:42:55;;;;;;;27.10;14.80;;;;;;;28.40;27.52;99211.34;108272;1251;63031;-66
2023/03/25 02:45:26;;;;;;;28.40;16.00;;;;;;;28.48;27.02;99211.25;108311;1251;61141;-66
2023/03/25 02:47:58;;;;;;;28.50;16.30;;;;;;;28.63;26.66;99212.98;108295;1251;75070;-65
2023/03/25 02:50:39;;;;;;;27.60;16.10;;;;;;;28.51;27.25;99216.28;108292;1251;70868;-66
2023/03/25 02:53:10;;;;;;;30.20;16.60;;;;;;;28.52;26.45;99210.59;108139;1251;73143;-66
2023/03/25 02:55:41;;;;;;;31.10;16.50;;;;;;;28.41;26.97;99208.10;108123;1258;63197;-66
2023/03/25 02:58:12;;;;;;;30.90;18.00;;;;;;;28.27;27.34;99213.41;108337;1251;60301;-66
2023/03/25 03:00:40;;;;;;;28.90;16.00;;;;;;;28.17;27.03;99209.33;108380;1251;73093;-64
2023/03/25 03:03:10;;;;;;;26.70;15.80;;;;;;;27.97;27.48;99216.56;108151;1251;70417;-65
2023/03/25 03:05:42;;;;;;;28.80;17.30;;;;;;;28.20;27.02;99220.72;108160;1251;72703;-66
2023/03/25 03:08:48;;;;;;;27.70;16.20;;;;;;;28.27;26.68;99220.96;108205;1255;61312;-66
2023/03/25 03:11:20;;;;;;;25.00;15.00;;;;;;;27.79;27.24;99213.77;108348;1251;60347;-66
2023/03/25 03:14:07;;;;;;;35.00;17.20;;;;;;;27.64;27.50;99205.71;108344;1251;73337;-66
2023/03/25 03:17:24;;;;;;;31.00;16.90;;;;;;;27.83;26.92;99206.91;108374;1251;71625;-64
2023/03/25 03:20:07;;;;;;;27.70;17.40;;;;;;;28.03;26.91;99201.44;108294;1253;73659;-65
2023/03/25 03:22:51;;;;;;;26.10;16.40;;;;;;;27.87;27.05;99206.91;108329;1251;61887;-67
2023/03/25 03:25:35;;;;;;;26.20;16.80;;;;;;;28.18;26.37;99202.88;108143;1251;61421;-66
2023/03/25 03:28:44;;;;;;;29.10;16.30;;;;;;;28.07;26.47;99201.10;108271;1255;74948;-65
2023/03/25 03:31:23;;;;;;;26.60;16.00;;;;;;;28.29;26.22;99194.50;107770;1259;70317;-65
2023/03/25 03:34:53;;;;;;;31.10;17.40;;;;;;;28.85;25.94;99198.98;108275;1251;71914;-67
2023/03/25 03:37:25;;;;;;;27.60;16.90;;;;;;;28.91;25.61;99205.73;108303;1251;61596;-66
2023/03/25 03:39:54;;;;;;;32.70;17.00;;;;;;;29.55;25.06;99208.55;108297;1251;60348;-64
2023/03/25 03:42:27;;;;;;;27.60;16.90;;;;;;;29.34;25.24;99208.85;108066;1251;74520;-66
2023/03/25 03:44:59;;;;;;;31.80;18.20;;;;;;;29.28;25.37;99203.95;108251;1251;69878;-67
2023/03/25 03:47:30;;;;;;;31.60;16.60;;;;;;;28.74;26.13;99199.13;108266;1251;73978;-67
2023/03/25 03:50:08;;;;;;;33.10;17.60;;;;;;;29.19;25.64;99201.75;108249;1255;62130;-65
2023/03/25 03:52:44;;;;;;;37.70;19.90;;;;;;;28.90;25.91;99198.47;108265;1251;60504;-66
2023/03/25 03:55:28;;;;;;;34.20;17.50;;;;;;;28.43;26.50;99193.48;108244;1251;74066;-66
2023/03/25 04:01:26;;;;;;;34.40;18.80;;;;;;;24.52;31.54;99193.46;104860;1295;600478;-67
2023/03/25 04:03:59;;;;;;;37.00;21.80;;;;;;;26.61;28.62;99180.80;107362;1264;61471;-67
2023/03/25 04:06:49;;;;;;;37.00;21.30;;;;;;;26.99;28.24;99182.53;107262;1264;61526;-69
2023/03/25 04:09:40;;;;;;;35.10;21.20;;;;;;;27.28;27.72;99184.21;107392;1269;72772;-66
2023/03/25 04:12:20;;;;;;;33.40;19.30;;;;;;;27.11;27.83;99183.48;107350;1264;70447;-67
2023/03/25 04:14:49;;;;;;;29.80;18.40;;;;;;;28.00;26.89;99182.80;107371;1262;138093;-67
2023/03/25 04:17:16;;;;;;;36.80;20.90;;;;;;;27.41;27.23;99192.23;107502;1263;62849;-66
2023/03/25 04:19:47;;;;;;;33.30;18.70;;;;;;;27.30;27.47;99191.96;107534;1261;60643;-66
2023/03/25 04:22:18;;;;;;;43.60;21.80;;;;;;;27.58;27.36;99186.33;107508;1262;72007;-65
2023/03/25 04:24:48;;;;;;;42.30;21.30;;;;;;;27.64;27.09;99186.19;107820;1260;70559;-66
2023/03/25 04:27:15;;;;;;;37.50;19.70;;;;;;;27.57;27.26;99188.89;107746;1263;72547;-67
2023/03/25 04:29:46;;;;;;;36.40;21.10;;;;;;;27.57;27.04;99187.15;107751;1260;63145;-65
2023/03/25 04:32:13;;;;;;;38.60;20.70;;;;;;;27.60;27.18;99186.14;107846;1260;61522;-65
2023/03/25 04:34:42;;;;;;;35.00;20.20;;;;;;;27.71;27.19;99188.16;107810;1260;74079;-66
2023/03/25 04:37:10;;;;;;;39.30;20.60;;;;;;;27.97;26.57;99187.68;107767;1260;69886;-64
2023/03/25 04:39:38;;;;;;;38.10;19.70;;;;;;;27.91;26.62;99187.69;107749;1258;71495;-65
2023/03/25 04:42:05;;;;;;;36.20;21.00;;;;;;;27.83;26.70;99188.86;107796;1258;61430;-66
2023/03/25 04:44:32;;;;;;;34.20;19.80;;;;;;;27.65;26.80;99195.41;107766;1258;60334;-66
2023/03/25 04:46:59;;;;;;;29.50;19.10;;;;;;;27.49;27.04;99196.11;107817;1258;72095;-66
2023/03/25 04:49:27;;;;;;;34.10;20.60;;;;;;;27.91;26.65;99199.59;107666;1260;70976;-67
2023/03/25 04:51:54;;;;;;;31.70;19.30;;;;;;;28.37;26.30;99197.27;107813;1263;72779;-66
2023/03/25 04:54:22;;;;;;;29.30;19.10;;;;;;;28.21;26.55;99199.33;107758;1261;63122;-63
2023/03/25 04:56:50;;;;;;;30.50;19.10;;;;;;;28.28;26.26;99196.64;107763;1260;60091;-67
2023/03/25 04:59:23;;;;;;;32.10;18.60;;;;;;;28.31;26.37;99196.61;107580;1260;71246;-64
2023/03/25 05:01:51;;;;;;;37.00;21.30;;;;;;;27.80;26.80;99200.91;107802;1260;71490;-67
2023/03/25 05:04:19;;;;;;;33.50;20.20;;;;;;;27.91;26.73;99201.41;107795;1262;73148;-68
2023/03/25 05:06:51;;;;;;;35.40;20.40;;;;;;;28.32;26.62;99195.02;107754;1259;63290;-67
2023/03/25 05:09:20;;;;;;;36.90;20.30;;;;;;;28.30;26.50;99193.96;107605;1259;61565;-67
2023/03/25 05:11:48;;;;;;;32.90;19.70;;;;;;;28.39;26.65;99191.63;107736;1260;73894;-65
2023/03/25 05:14:19;;;;;;;33.90;20.20;;;;;;;28.23;26.85;99189.35;107738;1260;71526;-66
2023/03/25 05:16:46;;;;;;;30.40;19.00;;;;;;;28.25;26.44;99190.33;107770;1261;73649;-67
2023/03/25 05:19:14;;;;;;;32.20;19.60;;;;;;;28.19;26.59;99180.11;107703;1260;62947;-67
2023/03/25 05:21:41;;;;;;;40.10;22.90;;;;;;;28.15;26.53;99178.16;107569;1260;60122;-68
2023/03/25 05:24:09;;;;;;;40.90;23.30;;;;;;;28.53;26.27;99174.13;107715;1260;74414;-68
2023/03/25 05:26:38;;;;;;;35.90;21.40;;;;;;;28.55;26.29;99172.83;107684;1260;70614;-67
2023/03/25 05:29:12;;;;;;;41.50;25.00;;;;;;;28.70;25.84;99172.02;107583;1259;71017;-68
2023/03/25 05:31:40;;;;;;;45.50;25.20;;;;;;;28.48;26.05;99163.01;107747;1260;62789;-67
2023/03/25 05:34:08;;;;;;;40.30;23.40;;;;;;;28.76;25.79;99158.36;107763;1263;59808;-67
2023/03/25 05:36:34;;;;;;;39.20;23.60;;;;;;;28.73;25.65;99159.70;107741;1258;71338;-69
2023/03/25 05:39:03;;;;;;;45.90;25.50;;;;;;;29.13;25.49;99162.44;107695;1260;70832;-67
2023/03/25 05:41:31;;;;;;;38.50;22.50;;;;;;;29.06;25.51;99160.86;107698;1260;74116;-66
2023/03/25 05:44:14;;;;;;;;;;;;;;;29.35;25.08;99161.37;108214;1250;62706;-66
2023/03/25 05:46:41;;;;;;;35.10;19.90;;;;;;;29.09;25.50;99160.98;108214;1251;59522;-66
2023/03/25 05:49:07;;;;;;;36.90;21.50;;;;;;;28.84;25.63;99160.04;108122;1258;74091;-68
2023/03/25 05:51:43;;;;;;;33.20;19.20;;;;;;;29.40;25.07;99158.52;108204;1251;71488;-66
2023/03/25 05:54:10;;;;;;;27.00;17.40;;;;;;;29.38;25.13;99154.67;108220;1251;73663;-68
2023/03/25 05:56:38;;;;;;;30.80;18.90;;;;;;;28.80;25.39;99161.30;108218;1251;61467;-67
2023/03/25 05:59:06;;;;;;;27.00;17.40;;;;;;;28.00;26.40;99157.35;108202;1251;61414;-68
2023/03/25 06:01:36;;;;;;;28.30;17.90;;;;;;;27.79;26.67;99153.89;108267;1256;74176;-67
2023/03/25 06:04:08;;;;;;;29.20;19.20;;;;;;;27.55;27.06;99155.73;108338;1251;69459;-67
2023/03/25 06:06:35;;;;;;;31.90;19.20;;;;;;;28.27;26.59;99149.64;108314;1250;73437;-65
2023/03/25 06:09:03;;;;;;;27.90;18.20;;;;;;;27.97;26.56;99150.75;108225;1251;61331;-68
2023/03/25 06:11:36;;;;;;;29.70;18.60;;;;;;;27.91;26.77;99151.85;108298;1251;60812;-67
2023/03/25 06:14:04;;;;;;;31.10;18.60;;;;;;;27.59;26.95;99159.13;108263;1251;74259;-68
2023/03/25 06:16:35;;;;;;;27.60;18.30;;;;;;;27.86;26.78;99150.45;108164;1250;71582;-68
2023/03/25 06:19:02;;;;;;;29.70;18.40;;;;;;;27.93;26.78;99144.29;108213;1251;72841;-67
2023/03/25 06:21:32;;;;;;;31.00;18.70;;;;;;;28.25;26.43;99137.94;108135;1251;60764;-67
2023/03/25 06:24:07;;;;;;;29.90;18.20;;;;;;;28.37;25.92;99129.95;108190;1251;61575;-68
2023/03/25 06:26:34;;;;;;;32.80;18.70;;;;;;;28.10;26.64;99125.42;108186;1251;74333;-68
2023/03/25 06:29:02;;;;;;;31.00;18.40;;;;;;;28.28;26.34;99130.95;108173;1251;69487;-67
2023/03/25 06:31:32;;;;;;;32.70;20.20;;;;;;;28.40;26.32;99132.44;108176;1250;71552;-68
2023/03/25 06:34:00;;;;;;;31.50;17.60;;;;;;;28.73;25.93;99127.35;108293;1251;61198;-68
2023/03/25 06:36:31;;;;;;;33.40;19.30;;;;;;;28.99;25.59;99129.15;108277;1256;61216;-68
2023/03/25 06:38:58;;;;;;;28.80;17.90;;;;;;;28.93;26.13;99132.86;108282;1251;73022;-68
2023/03/25 06:41:34;;;;;;;31.30;19.50;;;;;;;28.70;26.05;99127.98;108267;1250;71234;-66
2023/03/25 06:44:23;;;;;;;31.00;19.20;;;;;;;28.28;26.58;99124.36;108169;1251;73675;-66
2023/03/25 06:46:51;;;;;;;28.10;18.10;;;;;;;27.86;27.35;99134.90;108221;1251;60450;-68
2023/03/25 06:49:38;;;;;;;34.10;19.20;;;;;;;27.89;27.23;99139.13;108242;1251;61284;-68
2023/03/25 06:52:05;;;;;;;30.60;19.90;;;;;;;28.06;26.97;99134.94;108224;1254;73326;-66
2023/03/25 06:54:32;;;;;;;33.50;19.80;;;;;;;27.76;27.21;99134.31;108207;1254;69964;-68
2023/03/25 06:56:59;;;;;;;31.80;18.60;;;;;;;27.94;27.04;99135.44;108309;1254;73695;-66
2023/03/25 06:59:31;;;;;;;32.30;19.10;;;;;;;27.50;27.37;99134.73;108220;1253;61714;-66
2023/03/25 07:01:58;;;;;;;32.60;19.90;;;;;;;27.47;27.32;99133.70;108210;1254;61238;-68
2023/03/25 07:04:25;;;;;;;31.50;20.20;;;;;;;27.97;26.88;99125.44;108344;1252;72861;-67
2023/03/25 07:06:55;;;;;;;41.90;22.20;;;;;;;27.88;27.17;99124.73;108119;1253;71117;-67
2023/03/25 07:09:24;;;;;;;32.80;19.80;;;;;;;27.84;27.18;99125.80;108285;1254;73737;-67
2023/03/25 07:11:51;;;;;;;36.90;20.90;;;;;;;27.47;27.34;99132.00;108140;1253;62472;-68
2023/03/25 07:14:19;;;;;;;38.80;21.50;;;;;;;27.74;27.30;99130.35;108270;1257;61299;-67
2023/03/25 07:16:46;;;;;;;38.80;21.50;;;;;;;27.95;26.85;99121.75;108285;1255;73967;-68
2023/03/25 07:19:16;;;;;;;35.30;22.30;;;;;;;27.98;26.97;99118.85;108283;1254;71736;-67
2023/03/25 07:21:47;;;;;;;37.80;20.30;;;;;;;27.99;26.91;99117.27;108158;1252;73439;-68
2023/03/25 07:24:14;;;;;;;33.60;19.70;;;;;;;27.94;26.96;99111.10;108306;1253;61246;-68
2023/03/25 07:26:41;;;;;;;36.40;19.00;;;;;;;28.09;27.21;99110.55;108263;1252;60818;-64
2023/03/25 07:29:10;;;;;;;40.50;23.00;;;;;;;28.48;26.85;99112.71;108241;1252;73957;-66
2023/03/25 07:31:40;;;;;;;41.50;21.90;;;;;;;28.43;27.30;99105.19;108294;1254;71653;-67
2023/03/25 07:34:07;;;;;;;32.60;19.20;;;;;;;28.35;27.57;99109.98;108290;1256;72923;-69
2023/03/25 07:36:34;;;;;;;36.00;20.20;;;;;;;28.28;26.82;99103.52;108289;1253;62287;-67
2023/03/25 07:39:01;;;;;;;35.00;20.70;;;;;;;28.53;27.26;99104.27;108420;1253;62854;-69
2023/03/25 07:41:28;;;;;;;39.30;22.10;;;;;;;28.93;26.44;99102.68;108312;1253;73862;-68
2023/03/25 07:44:05;;;;;;;43.10;24.90;;;;;;;28.64;26.85;99101.13;108235;1254;69626;-69
2023/03/25 07:46:35;;;;;;;38.70;23.70;;;;;;;28.35;27.32;99097.50;108134;1254;73128;-68
2023/03/25 07:49:03;;;;;;;44.70;26.30;;;;;;;28.92;26.58;99094.34;108300;1251;61289;-69
2023/03/25 07:51:31;;;;;;;33.70;20.10;;;;;;;28.91;26.99;99096.08;108313;1251;59599;-66
2023/03/25 07:54:00;;;;;;;40.80;24.90;;;;;;;28.36;27.48;99089.34;108241;1251;73823;-68
2023/03/25 07:56:33;;;;;;;36.70;21.60;;;;;;;28.92;26.65;99087.68;108239;1254;71462;-67
2023/03/25 07:59:01;;;;;;;33.10;18.80;;;;;;;28.98;26.48;99087.95;108226;1251;73389;-68
2023/03/25 08:01:28;;;;;;;32.70;20.70;;;;;;;29.03;26.47;99081.64;108280;1251;61258;-68
2023/03/25 08:03:54;;;;;;;30.70;19.40;;;;;;;29.47;26.06;99068.67;108289;1251;61469;-68
2023/03/25 08:06:27;;;;;;;30.10;17.90;;;;;;;29.56;25.67;99066.27;108315;1251;74209;-68
2023/03/25 08:08:54;;;;;;;29.60;18.40;;;;;;;29.09;25.75;99074.73;108357;1251;71147;-68
2023/03/25 08:11:21;;;;;;;29.80;18.50;;;;;;;28.57;26.27;99075.58;108289;1250;73524;-67
2023/03/25 08:13:48;;;;;;;29.70;18.10;;;;;;;28.28;26.62;99075.03;108255;1251;61176;-70
2023/03/25 08:16:15;;;;;;;27.10;18.10;;;;;;;28.83;25.98;99072.77;108277;1250;61325;-67
2023/03/25 08:18:43;;;;;;;27.80;17.50;;;;;;;29.15;25.90;99070.77;108220;1251;74787;-68
2023/03/25 08:21:11;;;;;;;30.40;18.80;;;;;;;29.05;25.76;99065.94;108226;1251;71199;-68
2023/03/25 08:23:39;;;;;;;27.30;18.20;;;;;;;28.89;25.97;99064.97;108303;1250;73950;-69
2023/03/25 08:26:06;;;;;;;27.50;16.70;;;;;;;28.78;26.15;99064.08;108238;1251;60461;-68
2023/03/25 08:28:33;;;;;;;29.80;18.70;;;;;;;29.20;25.37;99062.63;108223;1250;60250;-66
2023/03/25 08:31:01;;;;;;;26.70;17.30;;;;;;;29.25;25.73;99060.46;108362;1251;74773;-67
2023/03/25 08:33:41;;;;;;;30.90;19.50;;;;;;;29.21;25.88;99058.91;108288;1250;70207;-70
2023/03/25 08:36:12;;;;;;;29.30;19.00;;;;;;;29.61;25.26;99056.48;108407;1250;70678;-66
2023/03/25 08:38:40;;;;;;;;;;;;;;;29.45;25.60;99044.19;108304;1250;60300;-69
2023/03/25 08:41:07;;;;;;;30.80;18.90;;;;;;;29.98;24.96;99041.63;108342;1251;60960;-68
2023/03/25 08:43:34;;;;;;;30.80;18.30;;;;;;;30.34;24.43;99047.55;108263;1251;73679;-66
2023/03/25 08:46:05;;;;;;;29.50;19.30;;;;;;;29.31;25.40;99048.23;108304;1251;70549;-66
2023/03/25 08:48:36;;;;;;;28.50;19.00;;;;;;;29.54;25.28;99043.32;108264;1251;70988;-66
2023/03/25 08:51:06;;;;;;;28.70;18.00;;;;;;;29.21;25.77;99029.17;108335;1250;61302;-67
2023/03/25 08:53:32;;;;;;;25.80;17.50;;;;;;;29.62;25.10;99028.09;108287;1250;61273;-67
2023/03/25 08:55:59;;;;;;;28.40;18.10;;;;;;;29.59;25.10;99019.92;108329;1251;75033;-67
2023/03/25 08:58:26;;;;;;;28.70;19.00;;;;;;;29.23;25.51;99010.29;108246;1256;70447;-69
2023/03/25 09:00:54;;;;;;;29.40;17.90;;;;;;;29.51;25.19;99015.19;108244;1251;72026;-67
2023/03/25 09:03:21;;;;;;;29.20;19.30;;;;;;;29.58;25.20;99016.45;108331;1251;61328;-68
2023/03/25 09:05:48;;;;;;;33.10;20.10;;;;;;;29.69;25.14;99013.30;108236;1251;61099;-67
2023/03/25 09:08:17;;;;;;;33.40;20.10;;;;;;;29.61;25.13;99009.61;108226;1251;72696;-68
2023/03/25 09:10:44;;;;;;;28.90;18.30;;;;;;;30.73;24.31;99009.98;108256;1251;71951;-69
2023/03/25 09:13:13;;;;;;;30.90;19.20;;;;;;;31.15;23.46;99008.05;108264;1251;73885;-67
2023/03/25 09:15:40;;;;;;;27.30;17.10;;;;;;;30.83;23.83;99014.71;108233;1251;60361;-68
2023/03/25 09:18:07;;;;;;;28.50;17.60;;;;;;;30.26;24.60;99012.03;108294;1251;61199;-69
2023/03/25 09:20:36;;;;;;;33.30;19.70;;;;;;;29.80;24.83;99014.77;108292;1251;74699;-67
2023/03/25 09:23:03;;;;;;;25.30;17.00;;;;;;;30.27;24.63;99017.69;108260;1251;70306;-69
2023/03/25 09:25:36;;;;;;;27.40;18.80;;;;;;;30.58;24.27;99017.48;108156;1251;74336;-69
2023/03/25 09:28:03;;;;;;;32.90;18.40;;;;;;;30.70;23.98;99013.74;108250;1251;61400;-68
2023/03/25 09:30:30;;;;;;;29.50;18.20;;;;;;;30.15;24.88;99009.37;108182;1251;61928;-68
2023/03/25 09:32:57;;;;;;;33.40;18.20;;;;;;;29.73;25.20;99006.78;108179;1256;73751;-66
2023/03/25 09:35:25;;;;;;;27.30;17.70;;;;;;;29.85;25.02;99012.27;108236;1251;69997;-68
2023/03/25 09:37:54;;;;;;;31.70;19.30;;;;;;;29.63;25.40;99014.16;108246;1251;73884;-68
2023/03/25 09:40:21;;;;;;;31.30;19.10;;;;;;;29.74;25.29;99015.55;108281;1255;60383;-68
2023/03/25 09:42:57;;;;;;;29.50;18.80;;;;;;;29.92;25.31;99007.73;108260;1251;61087;-69
2023/03/25 09:45:43;;;;;;;33.50;20.40;;;;;;;30.05;24.94;99004.50;108384;1251;74983;-69
2023/03/25 09:48:36;;;;;;;34.50;19.80;;;;;;;30.43;24.53;99011.77;108357;1251;71178;-70
2023/03/25 09:51:15;;;;;;;26.80;18.70;;;;;;;30.99;24.16;99003.61;108401;1251;73622;-70
2023/03/25 09:53:47;;;;;;;30.40;19.10;;;;;;;31.37;23.53;99003.55;108795;1250;60400;-69
2023/03/25 09:56:22;;;;;;;33.70;20.50;;;;;;;30.89;23.77;99004.52;108867;1251;60013;-69
2023/03/25 09:58:56;;;;;;;29.80;18.70;;;;;;;30.29;24.56;99000.77;108732;1250;73780;-68
2023/03/25 10:01:37;;;;;;;31.20;19.50;;;;;;;29.72;25.02;98993.05;108458;1250;69316;-68
2023/03/25 10:04:10;;;;;;;;;;;;;;;29.53;25.12;98989.20;108334;1251;74291;-69
2023/03/25 10:06:57;;;;;;;32.50;20.30;;;;;;;29.70;25.35;98987.09;108394;1250;60363;-69
2023/03/25 10:09:45;;;;;;;32.10;21.00;;;;;;;30.19;24.75;98989.19;108211;1251;60852;-69
2023/03/25 10:12:51;;;;;;;32.10;21.90;;;;;;;30.43;24.42;98989.67;108360;1256;74807;-68
2023/03/25 10:15:42;;;;;;;35.50;22.60;;;;;;;30.69;24.26;98992.22;108297;1251;70598;-68
2023/03/25 10:18:23;;;;;;;33.00;21.20;;;;;;;30.67;24.58;98995.79;108311;1251;74032;-68
2023/03/25 10:21:06;;;;;;;32.70;20.90;;;;;;;30.93;24.09;98990.80;108404;1250;61375;-69
2023/03/25 10:23:47;;;;;;;29.90;18.60;;;;;;;31.30;23.72;98972.20;108266;1250;61506;-68
2023/03/25 10:26:19;;;;;;;31.50;21.90;;;;;;;30.59;24.55;98960.88;108310;1251;75041;-68
2023/03/25 10:28:50;;;;;;;34.00;21.60;;;;;;;31.00;23.98;98946.96;108412;1250;70743;-68
2023/03/25 10:31:20;;;;;;;29.80;20.10;;;;;;;30.66;24.23;98946.37;108390;1251;74086;-68
2023/03/25 10:34:03;;;;;;;38.70;24.50;;;;;;;29.99;25.05;98946.63;108277;1250;61129;-67
2023/03/25 10:36:35;;;;;;;37.60;22.90;;;;;;;30.67;24.29;98939.63;108269;1250;60338;-68
2023/03/25 10:39:03;;;;;;;32.70;22.30;;;;;;;30.93;24.26;98943.38;108381;1251;72975;-69
2023/03/25 10:41:38;;;;;;;37.20;22.50;;;;;;;30.84;24.15;98949.73;108274;1251;71528;-67
2023/03/25 10:44:08;;;;;;;31.00;20.40;;;;;;;31.06;23.91;98947.08;108402;1251;70725;-68
2023/03/25 10:46:46;;;;;;;;;;;;;;;31.26;24.08;98954.85;108306;1250;60331;-68
2023/03/25 10:49:25;;;;;;;35.50;21.60;;;;;;;31.16;23.96;98942.46;108294;1251;61110;-68
2023/03/25 10:51:56;;;;;;;36.90;23.70;;;;;;;31.16;24.12;98930.20;108277;1251;74641;-68
2023/03/25 10:54:33;;;;;;;35.80;22.10;;;;;;;31.11;24.18;98922.91;108305;1251;69594;-68
2023/03/25 10:57:05;;;;;;;30.10;19.60;;;;;;;31.06;23.91;98920.85;108255;1251;73298;-68
2023/03/25 10:59:36;;;;;;;30.40;20.00;;;;;;;30.98;24.03;98924.54;108206;1253;61648;-67
2023/03/25 11:02:17;;;;;;;31.70;19.50;;;;;;;31.19;24.18;98920.05;108347;1251;59970;-66
2023/03/25 11:04:50;;;;;;;36.60;22.10;;;;;;;31.10;23.81;98919.57;108269;1256;74876;-67
2023/03/25 11:07:19;;;;;;;34.20;22.00;;;;;;;30.74;24.65;98916.91;108270;1250;68634;-68
2023/03/25 11:09:46;;;;;;;38.60;24.60;;;;;;;30.90;24.42;98911.42;108233;1251;71105;-67
2023/03/25 11:12:13;;;;;;;38.20;23.60;;;;;;;31.34;23.87;98910.87;108206;1253;61225;-66
2023/03/25 11:14:40;;;;;;;31.40;20.50;;;;;;;31.28;24.10;98905.55;108194;1251;60345;-67
2023/03/25 11:17:14;;;;;;;35.50;21.40;;;;;;;30.89;24.18;98903.98;108324;1251;73840;-65
2023/03/25 11:19:54;;;;;;;34.30;22.30;;;;;;;30.24;25.07;98910.45;108167;1251;70407;-68
2023/03/25 11:22:24;;;;;;;36.30;21.60;;;;;;;30.34;25.09;98901.62;108232;1251;73802;-68
2023/03/25 11:25:00;;;;;;;31.20;20.00;;;;;;;30.70;24.38;98895.36;108177;1251;60299;-66
2023/03/25 11:27:29;;;;;;;30.10;19.30;;;;;;;31.39;24.23;98893.45;108221;1251;60315;-69
2023/03/25 11:30:00;;;;;;;36.10;22.10;;;;;;;31.26;24.13;98894.35;108311;1250;75472;-66
2023/03/25 11:32:36;;;;;;;35.00;22.10;;;;;;;31.23;23.92;98891.98;108260;1251;70443;-67
2023/03/25 11:35:18;;;;;;;32.90;20.10;;;;;;;31.12;24.51;98897.92;108423;1250;72689;-68
2023/03/25 11:37:47;;;;;;;34.20;22.30;;;;;;;31.20;24.34;98895.36;108304;1251;61567;-68
2023/03/25 11:40:16;;;;;;;33.90;22.50;;;;;;;31.54;23.54;98893.05;108258;1250;60771;-68